Terminal Aerodrome Forecast
Issued by NWS

Home | Current Version | Previous Version | Text Only | Print | Product List | Glossary On
Versions: 1 2 3 4 5 6 7 8 9 10 11 12 13 14 15 16 17 18 19 20 21 22 23 24
000
FTUS41 KOKX 180800 AAA
TAFHPN
TAF AMD
KHPN 180814Z 1808/1906 30014G23KT P6SM SCT035 BKN050
      TEMPO 1808/1811 P6SM -SHSN BKN035
     FM181400 31017G26KT P6SM SCT035
     FM182200 31012KT P6SM SCT035
     FM190100 30008KT P6SM SCT035
      AMD NOT SKED=

USA.gov is the U.S. government's official web portal to all federal, state and local government web resources and services.